Omaha, NE

3:22 PM CDT on May 03, 2015 (GMT -0500)
Falling Waters | | Change Station
CLOSE
Current Station
Personal Weather Station
Location: Omaha, NE
Elevation: 1224 ft
Nearby Weather Stations

Elev 1224 ft 41.20 °N, 96.22 °W | Updated 6 minutes ago

Mostly Cloudy
Mostly Cloudy
77.7 °F
Feels Like 79 °F
N
2.7
Wind Variable Wind from East

Today
High -- | Low -- °F
--% Chance of Precip.
Yesterday
High -- | Low -- °F
Precip. -- in
6:20 AM 8:23 PM
Full, 100% visible
Pressure 29.74 in
Visibility 10.0 miles
Clouds Clear
Heat Index 79 °F
Dew Point 64 °F
Humidity 62%
Rainfall 0.18 in
Snow Depth Not available.
UV 9 out of 12
Pollen 11.40 out of 12
Air Quality Not available.
Flu Activity Local Activity
METAR KMLE 032015Z AUTO 16003KT 10SM CLR 26/16 A2974 RMK AO2 T02550163

More Conditions Fewer Conditions

Pressure 29.74 in
Visibility 10.0 miles
Clouds Clear
Heat Index 79 °F
Dew Point 64 °F
Humidity 62%
Rainfall 0.18 in
Snow Depth Not available.
UV 9 out of 12
Pollen 11.40 out of 12
Air Quality Not available.
Flu Activity Local Activity
METAR KMLE 032015Z AUTO 16003KT 10SM CLR 26/16 A2974 RMK AO2 T02550163

More Conditions Fewer Conditions

Nepal has a long way to go to dig out and rebuild from a devastating earthquake. We have teamed up with several charities and organizations to make contributing to the relief effort as easy as possible.
How you can help: Portlight Strategies | Red Cross

10-Day Weather Forecast

Almanac

Astronomy

May. 03, 2015 Rise Set
Actual Time
Civil Twilight
Nautical Twilight
Astronomical Twilight
Moon
Length of Visible Light
Length of Day
Tomorrow will be .
, % of the Moon is Illuminated

Today's Extremes

State Highs State Lows

Community

WunderPhotos

Upload Photos

1,818,355 photos uploaded!

WunderBlogs® & News

Nearby

Air Quality

  Air Quality AQ Index Pollutant
Not available.

Snow Depth

Station Depth Elevation

Earthquake Activity

City Distance Mag. Time & Date
Minimum magnitude displayed is 2.5.

Coastal Water Temperatures

Place Temperature

Stations

Nearby Weather Stations

Station Location Temp. Windchill Dew Point Humidity Wind Precip. Elev Updated Type